createdAt,value
2018-06-11T00:00:49.987Z,20.76
2018-06-11T00:03:02.371Z,20.69
2018-06-11T00:05:14.813Z,20.66
2018-06-11T00:07:27.162Z,20.59
2018-06-11T00:09:39.723Z,20.55
2018-06-11T00:11:52.193Z,20.46
2018-06-11T00:14:04.793Z,20.39
2018-06-11T00:16:17.240Z,20.34
2018-06-11T00:18:29.594Z,20.34
2018-06-11T00:20:42.070Z,20.26
2018-06-11T00:22:54.481Z,20.21
2018-06-11T00:25:06.842Z,20.22
2018-06-11T00:27:19.221Z,20.15
2018-06-11T00:29:31.681Z,20.15
2018-06-11T00:31:44.034Z,20.09
2018-06-11T00:33:56.370Z,20.13
2018-06-11T00:36:08.758Z,20.12
2018-06-11T00:38:21.133Z,20.07
2018-06-11T00:40:36.617Z,20.03
2018-06-11T00:42:49.051Z,20.02
2018-06-11T00:45:01.516Z,19.96
2018-06-11T00:47:13.962Z,19.91
2018-06-11T00:49:26.346Z,19.85
2018-06-11T00:51:38.725Z,19.85
2018-06-11T00:53:51.091Z,19.88
2018-06-11T00:56:07.177Z,19.83
2018-06-11T00:58:19.736Z,19.74
2018-06-11T01:00:32.165Z,19.69
2018-06-11T01:02:44.518Z,19.73
2018-06-11T01:04:56.898Z,19.64
2018-06-11T01:07:09.310Z,19.62
2018-06-11T01:09:21.738Z,19.64
2018-06-11T01:11:34.187Z,19.63
2018-06-11T01:13:46.546Z,19.58
2018-06-11T01:15:58.987Z,19.60
2018-06-11T01:18:11.416Z,19.59
2018-06-11T01:20:23.804Z,19.61
2018-06-11T01:22:36.147Z,19.57
2018-06-11T01:24:48.603Z,19.52
2018-06-11T01:27:01.078Z,19.49
2018-06-11T01:29:13.763Z,19.46
2018-06-11T01:31:26.210Z,19.48
2018-06-11T01:33:38.574Z,19.51
2018-06-11T01:35:50.967Z,19.53
2018-06-11T01:38:03.345Z,19.50
2018-06-11T01:40:15.960Z,19.42
2018-06-11T01:42:28.344Z,19.35
2018-06-11T01:44:40.759Z,19.36
2018-06-11T01:46:53.164Z,19.41
2018-06-11T01:49:05.589Z,19.42
2018-06-11T01:51:18.031Z,19.43
2018-06-11T01:53:30.467Z,19.42
2018-06-11T01:55:42.951Z,19.41
2018-06-11T01:57:55.343Z,19.43
2018-06-11T02:00:07.793Z,19.45
2018-06-11T02:02:20.299Z,19.45
2018-06-11T02:04:32.685Z,19.47
2018-06-11T02:06:45.143Z,19.44
2018-06-11T02:08:57.530Z,19.44
2018-06-11T02:11:09.965Z,19.42
2018-06-11T02:13:22.382Z,19.46
2018-06-11T02:15:34.782Z,19.46
2018-06-11T02:17:47.155Z,19.47
2018-06-11T02:19:59.559Z,19.47
2018-06-11T02:22:12.083Z,19.48
2018-06-11T02:24:24.493Z,19.47
2018-06-11T02:26:36.902Z,19.50
2018-06-11T02:28:49.297Z,19.48
2018-06-11T02:31:01.774Z,19.48
2018-06-11T02:33:14.188Z,19.45
2018-06-11T02:35:26.606Z,19.47
2018-06-11T02:37:39.044Z,19.47
2018-06-11T02:39:51.409Z,19.43
2018-06-11T02:42:03.979Z,19.38
2018-06-11T02:44:16.467Z,19.35
2018-06-11T02:46:28.827Z,19.31
2018-06-11T02:48:41.308Z,19.27
2018-06-11T02:50:53.667Z,19.23
2018-06-11T02:53:06.265Z,19.21
2018-06-11T02:55:18.631Z,19.26
2018-06-11T02:57:31.110Z,19.35
2018-06-11T02:59:43.558Z,19.31
2018-06-11T03:01:55.939Z,19.30
2018-06-11T03:04:08.393Z,19.32
2018-06-11T03:06:20.801Z,19.33
2018-06-11T03:08:33.206Z,19.30
2018-06-11T03:10:45.583Z,19.27
2018-06-11T03:12:58.044Z,19.19
2018-06-11T03:15:10.393Z,19.07
2018-06-11T03:17:22.985Z,19.02
2018-06-11T03:19:35.399Z,18.96
2018-06-11T03:21:47.747Z,18.92
2018-06-11T03:24:00.090Z,18.92
2018-06-11T03:26:12.542Z,18.90
2018-06-11T03:28:24.950Z,18.90
2018-06-11T03:30:37.362Z,18.90
2018-06-11T03:32:49.733Z,18.95
2018-06-11T03:35:02.179Z,18.98
2018-06-11T03:37:14.662Z,18.98
2018-06-11T03:39:27.056Z,18.99
2018-06-11T03:41:39.430Z,19.00
2018-06-11T03:43:51.955Z,18.99
2018-06-11T03:46:04.443Z,19.02
2018-06-11T03:48:16.924Z,19.08
2018-06-11T03:50:29.373Z,19.11
2018-06-11T03:52:41.835Z,19.13
2018-06-11T03:54:54.253Z,19.09
2018-06-11T03:57:06.750Z,19.06
2018-06-11T03:59:19.115Z,19.02
2018-06-11T04:01:31.547Z,19.05
2018-06-11T04:03:43.946Z,19.04
2018-06-11T04:05:56.369Z,19.10
2018-06-11T04:08:08.758Z,19.14
2018-06-11T04:10:21.158Z,19.26
2018-06-11T04:12:33.637Z,19.33
2018-06-11T04:14:46.171Z,19.33
2018-06-11T04:16:58.545Z,19.36
2018-06-11T04:19:11.038Z,19.44
2018-06-11T04:21:23.390Z,19.50
2018-06-11T04:23:35.840Z,19.57
2018-06-11T04:25:48.327Z,19.66
2018-06-11T04:28:00.714Z,19.73
2018-06-11T04:30:14.088Z,19.86
2018-06-11T04:32:26.451Z,20.11
2018-06-11T04:34:39.019Z,20.29
2018-06-11T04:36:51.402Z,20.38
2018-06-11T04:39:05.332Z,20.45
2018-06-11T04:41:17.691Z,20.49
2018-06-11T04:43:30.259Z,20.45
2018-06-11T04:45:42.639Z,20.44
2018-06-11T04:47:55.031Z,20.43
2018-06-11T04:50:07.611Z,20.46
2018-06-11T04:52:19.970Z,20.43
2018-06-11T04:54:32.650Z,20.49
2018-06-11T04:56:45.051Z,20.54
2018-06-11T04:58:57.386Z,20.67
2018-06-11T05:01:09.812Z,20.80
2018-06-11T05:03:22.202Z,20.94
2018-06-11T05:05:34.623Z,21.00
2018-06-11T05:07:47.031Z,21.08
2018-06-11T05:09:59.455Z,21.18
2018-06-11T05:12:11.855Z,21.31
2018-06-11T05:14:24.339Z,21.35
2018-06-11T05:16:36.755Z,21.37
2018-06-11T05:18:49.171Z,21.37
2018-06-11T05:21:01.700Z,21.44
2018-06-11T05:23:14.123Z,21.55
2018-06-11T05:25:26.566Z,21.69
2018-06-11T05:27:39.018Z,21.74
2018-06-11T05:29:51.358Z,21.81
2018-06-11T05:32:03.929Z,21.98
2018-06-11T05:34:16.478Z,22.11
2018-06-11T05:36:28.878Z,22.18
2018-06-11T05:38:41.262Z,22.11
2018-06-11T05:40:53.590Z,22.07
2018-06-11T05:43:06.098Z,22.19
2018-06-11T05:45:18.453Z,22.34
2018-06-11T05:47:30.859Z,22.54
2018-06-11T05:49:43.306Z,22.62
2018-06-11T05:51:55.727Z,22.74
2018-06-11T05:54:08.302Z,22.85
2018-06-11T05:56:20.682Z,23.02
2018-06-11T05:58:33.170Z,23.17
2018-06-11T06:00:45.562Z,23.25
2018-06-11T06:02:57.996Z,23.31
2018-06-11T06:05:10.423Z,23.24
2018-06-11T06:07:22.797Z,23.16
2018-06-11T06:09:35.226Z,23.23
2018-06-11T06:11:47.616Z,23.40
2018-06-11T06:13:59.997Z,23.52
2018-06-11T06:16:12.487Z,23.60
2018-06-11T06:18:24.875Z,23.71
2018-06-11T06:20:37.339Z,23.79
2018-06-11T06:22:49.975Z,23.87
2018-06-11T06:25:02.390Z,23.95
2018-06-11T06:27:14.848Z,24.09
2018-06-11T06:29:27.274Z,24.16
2018-06-11T06:31:39.806Z,24.29
2018-06-11T06:33:52.215Z,24.44
2018-06-11T06:36:04.758Z,24.63
2018-06-11T06:38:17.163Z,24.62
2018-06-11T06:40:29.594Z,24.61
2018-06-11T06:42:41.942Z,24.55
2018-06-11T06:44:54.326Z,24.46
2018-06-11T06:47:06.762Z,24.37
2018-06-11T06:49:19.173Z,24.24
2018-06-11T06:51:31.618Z,24.16
2018-06-11T06:53:44.086Z,24.10
2018-06-11T06:55:56.495Z,24.07
2018-06-11T06:58:08.965Z,24.06
2018-06-11T07:00:21.572Z,24.09
2018-06-11T07:02:33.946Z,24.17
2018-06-11T07:04:46.350Z,24.16
2018-06-11T07:06:58.816Z,24.13
2018-06-11T07:09:11.197Z,24.18
2018-06-11T07:11:23.617Z,24.21
2018-06-11T07:13:36.001Z,24.22
2018-06-11T07:15:48.426Z,24.22
2018-06-11T07:18:00.910Z,24.21
2018-06-11T07:20:13.376Z,24.26
2018-06-11T07:22:25.746Z,24.33
2018-06-11T07:24:38.360Z,24.45
2018-06-11T07:26:50.834Z,24.65
2018-06-11T07:29:03.335Z,24.83
2018-06-11T07:31:15.912Z,24.96
2018-06-11T07:33:28.255Z,25.03
2018-06-11T07:35:40.675Z,25.09
2018-06-11T07:37:53.199Z,25.04
2018-06-11T07:40:05.604Z,24.98
2018-06-11T07:42:17.962Z,24.97
2018-06-11T07:44:30.412Z,24.78
2018-06-11T07:46:42.899Z,24.78
2018-06-11T07:48:55.947Z,24.83
2018-06-11T07:51:08.327Z,24.85
2018-06-11T07:53:20.817Z,24.92
2018-06-11T07:55:33.192Z,24.71
2018-06-11T07:57:45.699Z,24.71
2018-06-11T07:59:58.195Z,24.83
2018-06-11T08:02:10.556Z,24.84
2018-06-11T08:04:23.071Z,24.80
2018-06-11T08:06:35.495Z,24.81
2018-06-11T08:08:47.976Z,24.83
2018-06-11T08:11:00.427Z,24.85
2018-06-11T08:13:12.817Z,24.89
2018-06-11T08:15:25.341Z,24.95
2018-06-11T08:17:37.760Z,25.00
2018-06-11T08:19:50.172Z,25.02
2018-06-11T08:22:02.667Z,25.08
2018-06-11T08:24:15.052Z,25.14
2018-06-11T08:26:27.741Z,25.19
2018-06-11T08:28:40.315Z,25.26
2018-06-11T08:30:52.766Z,25.27
2018-06-11T08:33:05.335Z,25.32
2018-06-11T08:35:17.732Z,25.35
2018-06-11T08:37:30.189Z,25.39
2018-06-11T08:39:42.596Z,25.35
2018-06-11T08:41:54.958Z,25.36
2018-06-11T08:44:07.362Z,25.42
2018-06-11T08:46:19.726Z,25.56
2018-06-11T08:48:32.114Z,25.68
2018-06-11T08:50:44.739Z,25.75
2018-06-11T08:52:57.154Z,25.94
2018-06-11T08:55:09.532Z,26.18
2018-06-11T08:57:22.062Z,26.67
2018-06-11T08:59:34.554Z,27.07
2018-06-11T09:01:47.054Z,27.36
2018-06-11T09:03:59.554Z,27.73
2018-06-11T09:06:12.099Z,28.07
2018-06-11T09:08:24.526Z,28.32
2018-06-11T09:10:37.013Z,28.27
2018-06-11T09:12:49.569Z,28.24
2018-06-11T09:15:01.999Z,28.15
2018-06-11T09:17:14.399Z,28.16
2018-06-11T09:19:26.810Z,28.10
2018-06-11T09:21:39.473Z,28.09
2018-06-11T09:23:52.067Z,28.05
2018-06-11T09:26:04.558Z,28.05
2018-06-11T09:28:16.982Z,28.06
2018-06-11T09:30:29.367Z,28.08
2018-06-11T09:32:41.848Z,28.25
2018-06-11T09:34:54.437Z,28.33
2018-06-11T09:37:07.021Z,28.39
2018-06-11T09:39:19.633Z,28.44
2018-06-11T09:41:32.579Z,28.29
2018-06-11T09:43:45.063Z,28.20
2018-06-11T09:45:57.609Z,27.98
2018-06-11T09:48:10.018Z,27.74
2018-06-11T09:50:22.430Z,27.65
2018-06-11T09:52:34.779Z,27.45
2018-06-11T09:54:47.223Z,27.20
2018-06-11T09:56:59.632Z,27.04
2018-06-11T09:59:12.063Z,26.91
2018-06-11T10:01:24.398Z,26.91
2018-06-11T10:03:36.971Z,26.85
2018-06-11T10:05:49.377Z,26.77
2018-06-11T10:08:01.773Z,26.74
2018-06-11T10:10:15.194Z,26.71
2018-06-11T10:12:27.637Z,26.72
2018-06-11T10:14:40.025Z,26.73
2018-06-11T10:16:52.403Z,26.70
2018-06-11T10:19:05.164Z,26.70
2018-06-11T10:21:17.655Z,26.72
2018-06-11T10:23:30.117Z,26.74
2018-06-11T10:25:42.497Z,26.82
2018-06-11T10:27:57.033Z,26.95
2018-06-11T10:30:11.040Z,27.05
2018-06-11T10:32:23.428Z,27.33
2018-06-11T10:34:35.774Z,27.64
2018-06-11T10:36:48.201Z,27.98
2018-06-11T10:39:00.573Z,28.32
2018-06-11T10:41:12.929Z,28.49
2018-06-11T10:43:25.306Z,28.69
2018-06-11T10:45:37.786Z,28.93
2018-06-11T10:47:50.126Z,29.15
2018-06-11T10:50:02.576Z,29.24
2018-06-11T10:52:15.000Z,29.46
2018-06-11T10:54:27.326Z,29.65
2018-06-11T10:56:39.754Z,29.73
2018-06-11T10:58:52.242Z,29.87
2018-06-11T11:01:04.729Z,29.97
2018-06-11T11:03:17.161Z,30.12
2018-06-11T11:05:29.586Z,30.11
2018-06-11T11:07:42.007Z,30.05
2018-06-11T11:09:54.406Z,29.89
2018-06-11T11:12:06.786Z,29.76
2018-06-11T11:14:21.801Z,29.53
2018-06-11T11:16:34.330Z,29.49
2018-06-11T11:18:46.739Z,29.25
2018-06-11T11:20:59.280Z,29.22
2018-06-11T11:23:11.731Z,29.17
2018-06-11T11:25:24.210Z,29.04
2018-06-11T11:27:36.590Z,28.95
2018-06-11T11:29:48.911Z,28.86
2018-06-11T11:32:01.352Z,28.75
2018-06-11T11:34:13.949Z,28.60
2018-06-11T11:36:26.410Z,28.25
2018-06-11T11:38:38.794Z,28.12
2018-06-11T11:40:51.492Z,27.96
2018-06-11T11:43:03.972Z,27.91
2018-06-11T11:45:16.334Z,27.76
2018-06-11T11:47:28.666Z,27.64
2018-06-11T11:49:41.109Z,27.59
2018-06-11T11:51:53.546Z,27.63
2018-06-11T11:54:06.758Z,27.68
2018-06-11T11:56:19.182Z,27.76
2018-06-11T11:58:31.636Z,27.86
2018-06-11T12:00:44.046Z,28.07
2018-06-11T12:02:56.499Z,28.27
2018-06-11T12:05:08.896Z,28.45
2018-06-11T12:07:21.305Z,28.59
2018-06-11T12:09:33.878Z,28.71
2018-06-11T12:11:47.067Z,28.74
2018-06-11T12:13:59.450Z,28.74
2018-06-11T12:16:11.822Z,28.76
2018-06-11T12:18:24.185Z,28.75
2018-06-11T12:20:36.750Z,28.62
2018-06-11T12:22:49.252Z,28.65
2018-06-11T12:25:01.677Z,28.70
2018-06-11T12:27:14.120Z,28.76
2018-06-11T12:29:26.548Z,28.86
2018-06-11T12:31:38.929Z,29.04
2018-06-11T12:33:51.278Z,29.08
2018-06-11T12:36:03.968Z,29.16
2018-06-11T12:38:16.371Z,29.22
2018-06-11T12:40:28.771Z,29.28
2018-06-11T12:42:41.162Z,29.30
2018-06-11T12:44:53.576Z,29.29
2018-06-11T12:47:06.151Z,29.30
2018-06-11T12:49:18.622Z,29.37
2018-06-11T12:51:31.634Z,29.40
2018-06-11T12:53:44.060Z,29.48
2018-06-11T12:55:56.513Z,29.52
2018-06-11T12:58:08.989Z,29.54
2018-06-11T13:00:21.466Z,29.52
2018-06-11T13:02:33.897Z,29.39
2018-06-11T13:04:46.269Z,29.28
2018-06-11T13:06:58.811Z,29.06
2018-06-11T13:09:11.194Z,29.18
2018-06-11T13:11:23.795Z,29.26
2018-06-11T13:13:36.186Z,29.26
2018-06-11T13:15:48.543Z,29.20
2018-06-11T13:18:00.902Z,29.20
2018-06-11T13:20:13.243Z,29.23
2018-06-11T13:22:25.668Z,29.24
2018-06-11T13:24:38.199Z,29.18
2018-06-11T13:26:50.570Z,29.13
2018-06-11T13:29:03.110Z,29.10
2018-06-11T13:31:15.452Z,29.07
2018-06-11T13:33:27.920Z,29.06
2018-06-11T13:35:40.316Z,29.00
2018-06-11T13:37:52.757Z,28.97
2018-06-11T13:40:05.169Z,28.96
2018-06-11T13:42:17.519Z,28.95
2018-06-11T13:44:29.982Z,28.93
2018-06-11T13:46:42.385Z,29.00
2018-06-11T13:48:54.845Z,29.07
2018-06-11T13:51:07.383Z,29.09
2018-06-11T13:53:19.738Z,29.09
2018-06-11T13:55:32.142Z,29.03
2018-06-11T13:57:44.577Z,28.98
2018-06-11T13:59:57.095Z,28.91
2018-06-11T14:02:09.605Z,28.83
2018-06-11T14:04:21.991Z,28.70
2018-06-11T14:06:34.338Z,28.63
2018-06-11T14:08:46.726Z,28.62
2018-06-11T14:10:59.187Z,28.60
2018-06-11T14:13:11.543Z,28.60
2018-06-11T14:15:23.923Z,28.62
2018-06-11T14:17:36.300Z,28.56
2018-06-11T14:19:48.660Z,28.59
2018-06-11T14:22:00.994Z,28.60
2018-06-11T14:24:13.361Z,28.57
2018-06-11T14:26:26.295Z,28.52
2018-06-11T14:28:38.759Z,28.52
2018-06-11T14:30:51.097Z,28.49
2018-06-11T14:33:03.527Z,28.48
2018-06-11T14:35:15.893Z,28.45
2018-06-11T14:37:28.396Z,28.44
2018-06-11T14:39:40.770Z,28.44
2018-06-11T14:41:53.151Z,28.42
2018-06-11T14:44:05.483Z,28.36
2018-06-11T14:46:17.903Z,28.36
2018-06-11T14:48:30.571Z,28.30
2018-06-11T14:50:42.935Z,28.25
2018-06-11T14:52:55.322Z,28.21
2018-06-11T14:55:07.702Z,28.12
2018-06-11T14:57:20.117Z,27.99
2018-06-11T14:59:32.526Z,27.92
2018-06-11T15:01:44.859Z,27.79
2018-06-11T15:03:57.228Z,27.73
2018-06-11T15:06:09.590Z,27.62
2018-06-11T15:08:21.975Z,27.49
2018-06-11T15:10:34.339Z,27.39
2018-06-11T15:12:46.745Z,27.35
2018-06-11T15:15:00.080Z,27.31
2018-06-11T15:17:12.514Z,27.26
2018-06-11T15:19:24.922Z,27.12
2018-06-11T15:21:37.376Z,27.04
2018-06-11T15:23:49.725Z,26.99
2018-06-11T15:26:02.097Z,26.95
2018-06-11T15:28:14.433Z,26.85
2018-06-11T15:30:26.842Z,26.74
2018-06-11T15:32:39.220Z,26.68
2018-06-11T15:34:51.605Z,26.68
2018-06-11T15:37:04.035Z,26.56
2018-06-11T15:39:16.446Z,26.42
2018-06-11T15:41:28.910Z,26.35
2018-06-11T15:43:41.258Z,26.17
2018-06-11T15:45:53.645Z,26.04
2018-06-11T15:48:06.007Z,25.97
2018-06-11T15:50:18.530Z,25.91
2018-06-11T15:52:30.920Z,25.91
2018-06-11T15:54:43.297Z,25.96
2018-06-11T15:56:55.764Z,26.02
2018-06-11T15:59:08.135Z,26.05
2018-06-11T16:01:20.622Z,26.02
2018-06-11T16:03:32.986Z,26.01
2018-06-11T16:05:45.346Z,25.89
2018-06-11T16:07:57.693Z,25.76
2018-06-11T16:10:10.191Z,25.74
2018-06-11T16:12:22.557Z,25.63
2018-06-11T16:14:34.940Z,25.44
2018-06-11T16:16:47.522Z,25.23
2018-06-11T16:19:00.035Z,24.97
2018-06-11T16:21:12.659Z,24.60
2018-06-11T16:23:25.210Z,24.48
2018-06-11T16:25:38.116Z,24.30
2018-06-11T16:27:53.000Z,24.10
2018-06-11T16:30:05.471Z,23.85
2018-06-11T16:32:18.919Z,23.68
2018-06-11T16:34:32.254Z,23.53
2018-06-11T16:36:45.510Z,23.30
2018-06-11T16:38:57.929Z,23.10
2018-06-11T16:41:10.402Z,22.92
2018-06-11T16:43:22.944Z,22.67
2018-06-11T16:45:35.322Z,22.63
2018-06-11T16:47:48.807Z,22.50
2018-06-11T16:50:01.189Z,22.44
2018-06-11T16:52:13.585Z,22.39
2018-06-11T16:54:25.975Z,22.38
2018-06-11T16:56:38.367Z,22.34
2018-06-11T16:58:53.814Z,22.23
2018-06-11T17:01:06.965Z,22.19
2018-06-11T17:03:19.371Z,22.11
2018-06-11T17:05:31.805Z,22.02
2018-06-11T17:07:44.223Z,22.02
2018-06-11T17:09:56.635Z,22.03
2018-06-11T17:12:09.156Z,22.02
2018-06-11T17:14:22.178Z,22.02
2018-06-11T17:16:35.078Z,22.09
2018-06-11T17:18:47.478Z,22.06
2018-06-11T17:20:59.958Z,22.04
2018-06-11T17:23:12.342Z,21.91
2018-06-11T17:25:24.746Z,21.85
2018-06-11T17:27:37.179Z,21.86
2018-06-11T17:29:49.522Z,21.78
2018-06-11T17:32:02.146Z,21.74
2018-06-11T17:34:14.600Z,21.72
2018-06-11T17:36:27.279Z,21.63
2018-06-11T17:38:39.763Z,21.62
2018-06-11T17:40:52.181Z,21.58
2018-06-11T17:43:04.552Z,21.61
2018-06-11T17:45:16.987Z,21.55
2018-06-11T17:47:29.443Z,21.48
2018-06-11T17:49:41.845Z,21.55
2018-06-11T17:51:54.242Z,21.59
2018-06-11T17:54:06.630Z,21.51
2018-06-11T17:56:19.071Z,21.57
2018-06-11T17:58:31.594Z,21.53
2018-06-11T18:00:43.964Z,21.50
2018-06-11T18:02:56.330Z,21.56
2018-06-11T18:05:08.766Z,21.54
2018-06-11T18:07:21.219Z,21.55
2018-06-11T18:09:33.614Z,21.49
2018-06-11T18:11:46.010Z,21.47
2018-06-11T18:13:58.401Z,21.43
2018-06-11T18:16:10.797Z,21.39
2018-06-11T18:18:23.171Z,21.37
2018-06-11T18:20:35.620Z,21.40
2018-06-11T18:22:48.001Z,21.38
2018-06-11T18:25:00.394Z,21.42
2018-06-11T18:27:12.834Z,21.40
2018-06-11T18:29:25.193Z,21.38
2018-06-11T18:31:37.654Z,21.37
2018-06-11T18:33:50.018Z,21.38
2018-06-11T18:36:02.570Z,21.33
2018-06-11T18:38:14.979Z,21.28
2018-06-11T18:40:27.383Z,21.22
2018-06-11T18:42:39.874Z,21.24
2018-06-11T18:44:52.218Z,21.24
2018-06-11T18:47:04.804Z,21.16
2018-06-11T18:49:17.477Z,21.07
2018-06-11T18:51:29.868Z,21.09
2018-06-11T18:53:42.334Z,21.13
2018-06-11T18:55:54.761Z,21.16
2018-06-11T18:58:07.454Z,21.14
2018-06-11T19:00:19.811Z,21.16
2018-06-11T19:02:32.213Z,21.15
2018-06-11T19:04:44.722Z,21.14
2018-06-11T19:06:57.109Z,21.16
2018-06-11T19:09:09.531Z,21.15
2018-06-11T19:11:21.930Z,21.10
2018-06-11T19:13:34.361Z,21.07
2018-06-11T19:15:46.812Z,21.01
2018-06-11T19:17:59.199Z,20.98
2018-06-11T19:20:11.644Z,21.03
2018-06-11T19:22:24.179Z,20.97
2018-06-11T19:24:36.687Z,20.94
2018-06-11T19:26:49.068Z,20.96
2018-06-11T19:29:01.526Z,20.98
2018-06-11T19:31:13.953Z,20.91
2018-06-11T19:33:26.349Z,20.91
2018-06-11T19:35:38.816Z,20.85
2018-06-11T19:37:51.161Z,20.87
2018-06-11T19:40:03.562Z,20.90
2018-06-11T19:42:15.985Z,20.89
2018-06-11T19:44:28.297Z,20.88
2018-06-11T19:46:40.771Z,20.86
2018-06-11T19:48:53.181Z,20.84
2018-06-11T19:51:05.606Z,20.78
2018-06-11T19:53:17.943Z,20.79
2018-06-11T19:55:30.531Z,20.87
2018-06-11T19:57:42.902Z,20.94
2018-06-11T19:59:55.377Z,20.99
2018-06-11T20:02:07.753Z,21.05
2018-06-11T20:04:20.449Z,21.05
2018-06-11T20:06:32.806Z,21.04
2018-06-11T20:08:45.209Z,20.86
2018-06-11T20:10:57.621Z,20.68
2018-06-11T20:13:10.241Z,20.64
2018-06-11T20:15:22.635Z,20.57
2018-06-11T20:17:35.054Z,20.47
2018-06-11T20:19:47.454Z,20.48
2018-06-11T20:21:59.866Z,20.46
2018-06-11T20:24:12.251Z,20.45
2018-06-11T20:26:24.675Z,20.47
2018-06-11T20:28:37.114Z,20.47
2018-06-11T20:30:49.544Z,20.47
2018-06-11T20:33:02.043Z,20.48
2018-06-11T20:35:14.459Z,20.45
2018-06-11T20:37:26.862Z,20.42
2018-06-11T20:39:39.338Z,20.46
2018-06-11T20:41:51.728Z,20.50
2018-06-11T20:44:04.178Z,20.50
2018-06-11T20:46:16.554Z,20.44
2018-06-11T20:48:28.963Z,20.41
2018-06-11T20:50:41.590Z,20.45
2018-06-11T20:52:53.974Z,20.47
2018-06-11T20:55:06.443Z,20.47
2018-06-11T20:57:18.859Z,20.44
2018-06-11T20:59:31.278Z,20.44
2018-06-11T21:01:43.678Z,20.47
2018-06-11T21:03:56.045Z,20.44
2018-06-11T21:06:08.402Z,20.49
2018-06-11T21:08:20.778Z,20.47
2018-06-11T21:10:33.243Z,20.44
2018-06-11T21:12:45.626Z,20.45
2018-06-11T21:14:58.020Z,20.45
2018-06-11T21:17:10.626Z,20.48
2018-06-11T21:19:22.954Z,20.48
2018-06-11T21:21:35.357Z,20.49
2018-06-11T21:23:47.837Z,20.48
2018-06-11T21:26:00.346Z,20.45
2018-06-11T21:28:12.729Z,20.46
2018-06-11T21:30:25.156Z,20.46
2018-06-11T21:32:37.599Z,20.51
2018-06-11T21:34:49.921Z,20.50
2018-06-11T21:37:02.336Z,20.54
2018-06-11T21:39:14.815Z,20.52
2018-06-11T21:41:27.164Z,20.58
2018-06-11T21:43:39.574Z,20.56
2018-06-11T21:45:51.989Z,20.54
2018-06-11T21:48:04.371Z,20.53
2018-06-11T21:50:16.757Z,20.53
2018-06-11T21:52:29.180Z,20.57
2018-06-11T21:54:41.582Z,20.58
2018-06-11T21:56:54.228Z,20.53
2018-06-11T21:59:06.648Z,20.53
2018-06-11T22:01:19.166Z,20.59
2018-06-11T22:03:31.721Z,20.59
2018-06-11T22:05:44.057Z,20.54
2018-06-11T22:07:56.490Z,20.56
2018-06-11T22:10:08.875Z,20.55
2018-06-11T22:12:21.372Z,20.55
2018-06-11T22:14:33.810Z,20.54
2018-06-11T22:16:46.207Z,20.57
2018-06-11T22:18:58.752Z,20.61
2018-06-11T22:21:11.191Z,20.58
2018-06-11T22:23:23.630Z,20.54
2018-06-11T22:25:35.939Z,20.53
2018-06-11T22:27:48.253Z,20.52
2018-06-11T22:30:00.794Z,20.53
2018-06-11T22:32:13.146Z,20.53
2018-06-11T22:34:25.480Z,20.53
2018-06-11T22:36:37.909Z,20.50
2018-06-11T22:38:50.443Z,20.47
2018-06-11T22:41:02.834Z,20.46
2018-06-11T22:43:15.196Z,20.47
2018-06-11T22:45:27.610Z,20.47
2018-06-11T22:47:39.970Z,20.47
2018-06-11T22:49:52.378Z,20.43
2018-06-11T22:52:04.724Z,20.38
2018-06-11T22:54:17.041Z,20.37
2018-06-11T22:56:29.387Z,20.37
2018-06-11T22:58:41.742Z,20.37
2018-06-11T23:00:54.117Z,20.36
2018-06-11T23:03:06.611Z,20.36
2018-06-11T23:05:18.945Z,20.39
2018-06-11T23:07:31.250Z,20.36
2018-06-11T23:09:43.674Z,20.33
2018-06-11T23:11:56.074Z,20.24
2018-06-11T23:14:08.451Z,20.22
2018-06-11T23:16:20.795Z,20.21
2018-06-11T23:18:33.146Z,20.20
2018-06-11T23:20:45.553Z,20.15
2018-06-11T23:22:57.990Z,20.14
2018-06-11T23:25:10.290Z,20.18
2018-06-11T23:27:22.718Z,20.18
2018-06-11T23:29:35.099Z,20.19
2018-06-11T23:31:47.202Z,20.19
2018-06-11T23:33:59.562Z,20.19
2018-06-11T23:36:11.935Z,20.20
2018-06-11T23:38:24.286Z,20.25
2018-06-11T23:40:36.631Z,20.30
2018-06-11T23:42:48.946Z,20.32
2018-06-11T23:45:01.418Z,20.26
2018-06-11T23:47:13.766Z,20.23
2018-06-11T23:49:26.124Z,20.23
2018-06-11T23:51:38.458Z,20.27
2018-06-11T23:53:50.814Z,20.26
2018-06-11T23:56:03.154Z,20.19
2018-06-11T23:58:15.515Z,20.19
